sensor_id;sensor_type;location;lat;lon;timestamp;temperature;humidity
6988;DHT22;3534;49.960;8.018;2023-05-07T00:01:45;17.80;99.90
6988;DHT22;3534;49.960;8.018;2023-05-07T00:04:12;17.80;99.90
6988;DHT22;3534;49.960;8.018;2023-05-07T00:06:40;17.80;99.90
6988;DHT22;3534;49.960;8.018;2023-05-07T00:09:06;17.70;99.90
6988;DHT22;3534;49.960;8.018;2023-05-07T00:11:33;17.70;99.90
6988;DHT22;3534;49.960;8.018;2023-05-07T00:14:00;17.70;99.90
6988;DHT22;3534;49.960;8.018;2023-05-07T00:16:27;17.70;99.90
6988;DHT22;3534;49.960;8.018;2023-05-07T00:18:54;17.60;99.90
6988;DHT22;3534;49.960;8.018;2023-05-07T00:21:20;17.60;99.90
6988;DHT22;3534;49.960;8.018;2023-05-07T00:23:48;17.60;99.90
6988;DHT22;3534;49.960;8.018;2023-05-07T00:26:16;17.60;99.90
6988;DHT22;3534;49.960;8.018;2023-05-07T00:28:42;17.50;99.90
6988;DHT22;3534;49.960;8.018;2023-05-07T00:31:09;17.50;99.90
6988;DHT22;3534;49.960;8.018;2023-05-07T00:33:36;17.50;99.90
6988;DHT22;3534;49.960;8.018;2023-05-07T00:36:03;17.50;99.90
6988;DHT22;3534;49.960;8.018;2023-05-07T00:38:29;17.40;99.90
6988;DHT22;3534;49.960;8.018;2023-05-07T00:40:57;17.40;99.90
6988;DHT22;3534;49.960;8.018;2023-05-07T00:43:24;17.40;99.90
6988;DHT22;3534;49.960;8.018;2023-05-07T00:45:51;17.40;99.90
6988;DHT22;3534;49.960;8.018;2023-05-07T00:48:18;17.30;99.90
6988;DHT22;3534;49.960;8.018;2023-05-07T00:50:45;17.30;99.90
6988;DHT22;3534;49.960;8.018;2023-05-07T00:53:12;17.30;99.90
6988;DHT22;3534;49.960;8.018;2023-05-07T00:55:39;17.30;99.90
6988;DHT22;3534;49.960;8.018;2023-05-07T00:58:08;17.30;99.90
6988;DHT22;3534;49.960;8.018;2023-05-07T01:00:35;17.30;99.90
6988;DHT22;3534;49.960;8.018;2023-05-07T01:03:02;17.30;99.90
6988;DHT22;3534;49.960;8.018;2023-05-07T01:05:29;17.20;99.90
6988;DHT22;3534;49.960;8.018;2023-05-07T01:07:57;17.20;99.90
6988;DHT22;3534;49.960;8.018;2023-05-07T01:10:24;17.20;99.90
6988;DHT22;3534;49.960;8.018;2023-05-07T01:12:51;17.10;99.90
6988;DHT22;3534;49.960;8.018;2023-05-07T01:15:21;17.10;99.90
6988;DHT22;3534;49.960;8.018;2023-05-07T01:17:48;17.10;99.90
6988;DHT22;3534;49.960;8.018;2023-05-07T01:20:14;17.10;99.90
6988;DHT22;3534;49.960;8.018;2023-05-07T01:22:43;17.00;99.90
6988;DHT22;3534;49.960;8.018;2023-05-07T01:25:09;17.00;99.90
6988;DHT22;3534;49.960;8.018;2023-05-07T01:27:36;16.90;99.90
6988;DHT22;3534;49.960;8.018;2023-05-07T01:30:03;16.90;99.90
6988;DHT22;3534;49.960;8.018;2023-05-07T01:32:35;16.90;99.90
6988;DHT22;3534;49.960;8.018;2023-05-07T01:35:05;16.80;99.90
6988;DHT22;3534;49.960;8.018;2023-05-07T01:37:34;16.80;99.90
6988;DHT22;3534;49.960;8.018;2023-05-07T01:40:03;16.80;99.90
6988;DHT22;3534;49.960;8.018;2023-05-07T01:42:30;16.70;99.90
6988;DHT22;3534;49.960;8.018;2023-05-07T01:44:57;16.70;99.90
6988;DHT22;3534;49.960;8.018;2023-05-07T01:47:24;16.70;99.90
6988;DHT22;3534;49.960;8.018;2023-05-07T01:49:51;16.60;99.90
6988;DHT22;3534;49.960;8.018;2023-05-07T01:52:18;16.60;99.90
6988;DHT22;3534;49.960;8.018;2023-05-07T01:54:45;16.50;99.90
6988;DHT22;3534;49.960;8.018;2023-05-07T01:57:13;16.50;99.90
6988;DHT22;3534;49.960;8.018;2023-05-07T01:59:40;16.50;99.90
6988;DHT22;3534;49.960;8.018;2023-05-07T02:02:06;16.50;99.90
6988;DHT22;3534;49.960;8.018;2023-05-07T02:04:33;16.40;99.90
6988;DHT22;3534;49.960;8.018;2023-05-07T02:07:00;16.40;99.90
6988;DHT22;3534;49.960;8.018;2023-05-07T02:09:27;16.40;99.90
6988;DHT22;3534;49.960;8.018;2023-05-07T02:11:53;16.40;99.90
6988;DHT22;3534;49.960;8.018;2023-05-07T02:14:21;16.40;99.90
6988;DHT22;3534;49.960;8.018;2023-05-07T02:16:48;16.40;99.90
6988;DHT22;3534;49.960;8.018;2023-05-07T02:19:15;16.40;99.90
6988;DHT22;3534;49.960;8.018;2023-05-07T02:21:41;16.30;99.90
6988;DHT22;3534;49.960;8.018;2023-05-07T02:24:08;16.30;99.90
6988;DHT22;3534;49.960;8.018;2023-05-07T02:26:35;16.30;99.90
6988;DHT22;3534;49.960;8.018;2023-05-07T02:29:01;16.30;99.90
6988;DHT22;3534;49.960;8.018;2023-05-07T02:31:29;16.30;99.90
6988;DHT22;3534;49.960;8.018;2023-05-07T02:33:56;16.30;99.90
6988;DHT22;3534;49.960;8.018;2023-05-07T02:36:23;16.30;99.90
6988;DHT22;3534;49.960;8.018;2023-05-07T02:38:49;16.20;99.90
6988;DHT22;3534;49.960;8.018;2023-05-07T02:41:16;16.10;99.90
6988;DHT22;3534;49.960;8.018;2023-05-07T02:43:43;16.10;99.90
6988;DHT22;3534;49.960;8.018;2023-05-07T02:46:09;16.10;99.90
6988;DHT22;3534;49.960;8.018;2023-05-07T02:48:37;16.10;99.90
6988;DHT22;3534;49.960;8.018;2023-05-07T02:51:04;16.10;99.90
6988;DHT22;3534;49.960;8.018;2023-05-07T02:53:31;16.10;99.90
6988;DHT22;3534;49.960;8.018;2023-05-07T02:55:59;16.10;99.90
6988;DHT22;3534;49.960;8.018;2023-05-07T02:58:27;16.10;99.90
6988;DHT22;3534;49.960;8.018;2023-05-07T03:00:54;16.10;99.90
6988;DHT22;3534;49.960;8.018;2023-05-07T03:03:20;16.10;99.90
6988;DHT22;3534;49.960;8.018;2023-05-07T03:05:48;16.10;99.90
6988;DHT22;3534;49.960;8.018;2023-05-07T03:08:15;16.10;99.90
6988;DHT22;3534;49.960;8.018;2023-05-07T03:10:42;16.10;99.90
6988;DHT22;3534;49.960;8.018;2023-05-07T03:13:08;16.20;99.90
6988;DHT22;3534;49.960;8.018;2023-05-07T03:15:35;16.10;99.90
6988;DHT22;3534;49.960;8.018;2023-05-07T03:18:02;16.20;99.90
6988;DHT22;3534;49.960;8.018;2023-05-07T03:20:29;16.10;99.90
6988;DHT22;3534;49.960;8.018;2023-05-07T03:22:57;16.10;99.90
6988;DHT22;3534;49.960;8.018;2023-05-07T03:25:23;16.10;99.90
6988;DHT22;3534;49.960;8.018;2023-05-07T03:27:50;16.10;99.90
6988;DHT22;3534;49.960;8.018;2023-05-07T03:30:17;16.10;99.90
6988;DHT22;3534;49.960;8.018;2023-05-07T03:32:44;16.10;99.90
6988;DHT22;3534;49.960;8.018;2023-05-07T03:35:10;16.10;99.90
6988;DHT22;3534;49.960;8.018;2023-05-07T03:37:37;16.10;99.90
6988;DHT22;3534;49.960;8.018;2023-05-07T03:40:07;16.10;99.90
6988;DHT22;3534;49.960;8.018;2023-05-07T03:42:35;16.10;99.90
6988;DHT22;3534;49.960;8.018;2023-05-07T03:45:02;16.10;99.90
6988;DHT22;3534;49.960;8.018;2023-05-07T03:47:29;16.10;99.90
6988;DHT22;3534;49.960;8.018;2023-05-07T03:49:56;16.10;99.90
6988;DHT22;3534;49.960;8.018;2023-05-07T03:52:23;16.10;99.90
6988;DHT22;3534;49.960;8.018;2023-05-07T03:54:51;16.20;99.90
6988;DHT22;3534;49.960;8.018;2023-05-07T03:57:20;16.20;99.90
6988;DHT22;3534;49.960;8.018;2023-05-07T03:59:46;16.20;99.90
6988;DHT22;3534;49.960;8.018;2023-05-07T04:02:13;16.20;99.90
6988;DHT22;3534;49.960;8.018;2023-05-07T04:04:40;16.20;99.90
6988;DHT22;3534;49.960;8.018;2023-05-07T04:07:07;16.10;99.90
6988;DHT22;3534;49.960;8.018;2023-05-07T04:09:33;16.20;99.90
6988;DHT22;3534;49.960;8.018;2023-05-07T04:12:00;16.20;99.90
6988;DHT22;3534;49.960;8.018;2023-05-07T04:14:29;16.10;99.90
6988;DHT22;3534;49.960;8.018;2023-05-07T04:16:57;16.20;99.90
6988;DHT22;3534;49.960;8.018;2023-05-07T04:19:24;16.20;99.90
6988;DHT22;3534;49.960;8.018;2023-05-07T04:21:51;16.20;99.90
6988;DHT22;3534;49.960;8.018;2023-05-07T04:24:17;16.10;99.90
6988;DHT22;3534;49.960;8.018;2023-05-07T04:26:44;16.10;99.90
6988;DHT22;3534;49.960;8.018;2023-05-07T04:29:11;16.10;99.90
6988;DHT22;3534;49.960;8.018;2023-05-07T04:31:39;16.20;99.90
6988;DHT22;3534;49.960;8.018;2023-05-07T04:34:05;16.10;99.90
6988;DHT22;3534;49.960;8.018;2023-05-07T04:36:32;16.10;99.90
6988;DHT22;3534;49.960;8.018;2023-05-07T04:38:59;16.10;99.90
6988;DHT22;3534;49.960;8.018;2023-05-07T04:41:26;16.10;99.90
6988;DHT22;3534;49.960;8.018;2023-05-07T04:43:53;16.10;99.90
6988;DHT22;3534;49.960;8.018;2023-05-07T04:46:19;16.10;99.90
6988;DHT22;3534;49.960;8.018;2023-05-07T04:48:48;16.10;99.90
6988;DHT22;3534;49.960;8.018;2023-05-07T04:51:14;16.10;99.90
6988;DHT22;3534;49.960;8.018;2023-05-07T04:53:41;16.10;99.90
6988;DHT22;3534;49.960;8.018;2023-05-07T04:56:08;16.20;99.90
6988;DHT22;3534;49.960;8.018;2023-05-07T04:58:35;16.20;99.90
6988;DHT22;3534;49.960;8.018;2023-05-07T05:01:02;16.20;99.90
6988;DHT22;3534;49.960;8.018;2023-05-07T05:03:29;16.20;99.90
6988;DHT22;3534;49.960;8.018;2023-05-07T05:05:57;16.20;99.90
6988;DHT22;3534;49.960;8.018;2023-05-07T05:08:24;16.30;99.90
6988;DHT22;3534;49.960;8.018;2023-05-07T05:10:52;16.30;99.90
6988;DHT22;3534;49.960;8.018;2023-05-07T05:13:18;16.30;99.90
6988;DHT22;3534;49.960;8.018;2023-05-07T05:15:45;16.30;99.90
6988;DHT22;3534;49.960;8.018;2023-05-07T05:18:12;16.40;99.90
6988;DHT22;3534;49.960;8.018;2023-05-07T05:20:39;16.40;99.90
6988;DHT22;3534;49.960;8.018;2023-05-07T05:23:08;16.40;99.90
6988;DHT22;3534;49.960;8.018;2023-05-07T05:25:34;16.50;99.90
6988;DHT22;3534;49.960;8.018;2023-05-07T05:28:02;16.50;99.90
6988;DHT22;3534;49.960;8.018;2023-05-07T05:30:29;16.50;99.90
6988;DHT22;3534;49.960;8.018;2023-05-07T05:32:56;16.40;99.90
6988;DHT22;3534;49.960;8.018;2023-05-07T05:35:23;16.30;99.90
6988;DHT22;3534;49.960;8.018;2023-05-07T05:37:49;16.20;99.90
6988;DHT22;3534;49.960;8.018;2023-05-07T05:40:17;16.20;99.90
6988;DHT22;3534;49.960;8.018;2023-05-07T05:42:44;16.10;99.90
6988;DHT22;3534;49.960;8.018;2023-05-07T05:45:11;16.10;99.90
6988;DHT22;3534;49.960;8.018;2023-05-07T05:47:38;16.20;99.90
6988;DHT22;3534;49.960;8.018;2023-05-07T05:50:06;16.30;99.90
6988;DHT22;3534;49.960;8.018;2023-05-07T05:52:33;16.30;99.90
6988;DHT22;3534;49.960;8.018;2023-05-07T05:54:59;16.30;99.90
6988;DHT22;3534;49.960;8.018;2023-05-07T05:57:27;16.30;99.90
6988;DHT22;3534;49.960;8.018;2023-05-07T05:59:54;16.40;99.90
6988;DHT22;3534;49.960;8.018;2023-05-07T06:02:21;16.40;99.90
6988;DHT22;3534;49.960;8.018;2023-05-07T06:04:48;16.40;99.90
6988;DHT22;3534;49.960;8.018;2023-05-07T06:07:14;16.40;99.90
6988;DHT22;3534;49.960;8.018;2023-05-07T06:09:41;16.40;99.90
6988;DHT22;3534;49.960;8.018;2023-05-07T06:12:08;16.40;99.90
6988;DHT22;3534;49.960;8.018;2023-05-07T06:14:36;16.40;99.90
6988;DHT22;3534;49.960;8.018;2023-05-07T06:17:02;16.40;99.90
6988;DHT22;3534;49.960;8.018;2023-05-07T06:19:29;16.40;99.90
6988;DHT22;3534;49.960;8.018;2023-05-07T06:21:56;16.40;99.90
6988;DHT22;3534;49.960;8.018;2023-05-07T06:24:23;16.50;99.90
6988;DHT22;3534;49.960;8.018;2023-05-07T06:26:50;16.60;99.90
6988;DHT22;3534;49.960;8.018;2023-05-07T06:29:17;16.70;99.90
6988;DHT22;3534;49.960;8.018;2023-05-07T06:31:45;16.80;99.90
6988;DHT22;3534;49.960;8.018;2023-05-07T06:34:11;17.00;99.90
6988;DHT22;3534;49.960;8.018;2023-05-07T06:36:40;17.10;99.90
6988;DHT22;3534;49.960;8.018;2023-05-07T06:39:07;17.10;99.90
6988;DHT22;3534;49.960;8.018;2023-05-07T06:41:34;17.20;99.90
6988;DHT22;3534;49.960;8.018;2023-05-07T06:44:01;17.30;99.90
6988;DHT22;3534;49.960;8.018;2023-05-07T06:46:27;17.30;99.90
6988;DHT22;3534;49.960;8.018;2023-05-07T06:48:55;17.40;99.90
6988;DHT22;3534;49.960;8.018;2023-05-07T06:51:23;17.50;99.90
6988;DHT22;3534;49.960;8.018;2023-05-07T06:53:49;17.50;99.90
6988;DHT22;3534;49.960;8.018;2023-05-07T06:56:16;17.60;99.90
6988;DHT22;3534;49.960;8.018;2023-05-07T06:58:43;17.60;99.90
6988;DHT22;3534;49.960;8.018;2023-05-07T07:01:10;17.70;99.90
6988;DHT22;3534;49.960;8.018;2023-05-07T07:03:36;17.70;99.90
6988;DHT22;3534;49.960;8.018;2023-05-07T07:06:05;17.80;99.90
6988;DHT22;3534;49.960;8.018;2023-05-07T07:08:31;17.80;99.90
6988;DHT22;3534;49.960;8.018;2023-05-07T07:10:58;17.90;99.90
6988;DHT22;3534;49.960;8.018;2023-05-07T07:13:25;17.90;99.90
6988;DHT22;3534;49.960;8.018;2023-05-07T07:15:52;17.90;99.90
6988;DHT22;3534;49.960;8.018;2023-05-07T07:18:19;18.00;99.90
6988;DHT22;3534;49.960;8.018;2023-05-07T07:20:46;18.00;99.90
6988;DHT22;3534;49.960;8.018;2023-05-07T07:23:14;18.00;99.90
6988;DHT22;3534;49.960;8.018;2023-05-07T07:25:41;18.10;99.90
6988;DHT22;3534;49.960;8.018;2023-05-07T07:28:07;18.10;99.90
6988;DHT22;3534;49.960;8.018;2023-05-07T07:30:34;18.10;99.90
6988;DHT22;3534;49.960;8.018;2023-05-07T07:33:01;18.20;99.90
6988;DHT22;3534;49.960;8.018;2023-05-07T07:35:28;18.20;99.90
6988;DHT22;3534;49.960;8.018;2023-05-07T07:37:55;18.20;99.90
6988;DHT22;3534;49.960;8.018;2023-05-07T07:40:23;18.30;99.90
6988;DHT22;3534;49.960;8.018;2023-05-07T07:42:50;18.30;99.90
6988;DHT22;3534;49.960;8.018;2023-05-07T07:45:17;18.40;99.90
6988;DHT22;3534;49.960;8.018;2023-05-07T07:47:44;18.40;99.90
6988;DHT22;3534;49.960;8.018;2023-05-07T07:50:11;18.40;99.90
6988;DHT22;3534;49.960;8.018;2023-05-07T07:52:37;18.50;99.90
6988;DHT22;3534;49.960;8.018;2023-05-07T07:55:05;18.50;99.90
6988;DHT22;3534;49.960;8.018;2023-05-07T07:57:33;18.60;99.90
6988;DHT22;3534;49.960;8.018;2023-05-07T08:00:00;18.70;99.90
6988;DHT22;3534;49.960;8.018;2023-05-07T08:02:27;18.70;99.90
6988;DHT22;3534;49.960;8.018;2023-05-07T08:04:54;18.80;99.90
6988;DHT22;3534;49.960;8.018;2023-05-07T08:07:21;18.90;99.90
6988;DHT22;3534;49.960;8.018;2023-05-07T08:09:48;18.90;99.90
6988;DHT22;3534;49.960;8.018;2023-05-07T08:12:15;19.00;99.90
6988;DHT22;3534;49.960;8.018;2023-05-07T08:14:43;19.00;99.90
6988;DHT22;3534;49.960;8.018;2023-05-07T08:17:10;19.10;99.90
6988;DHT22;3534;49.960;8.018;2023-05-07T08:19:36;19.10;99.90
6988;DHT22;3534;49.960;8.018;2023-05-07T08:22:03;19.20;99.90
6988;DHT22;3534;49.960;8.018;2023-05-07T08:24:31;19.20;99.90
6988;DHT22;3534;49.960;8.018;2023-05-07T08:26:57;19.30;99.90
6988;DHT22;3534;49.960;8.018;2023-05-07T08:29:24;19.40;99.90
6988;DHT22;3534;49.960;8.018;2023-05-07T08:31:52;19.40;99.90
6988;DHT22;3534;49.960;8.018;2023-05-07T08:34:19;19.50;99.90
6988;DHT22;3534;49.960;8.018;2023-05-07T08:36:46;19.60;99.90
6988;DHT22;3534;49.960;8.018;2023-05-07T08:39:14;19.60;99.90
6988;DHT22;3534;49.960;8.018;2023-05-07T08:41:44;19.60;99.90
6988;DHT22;3534;49.960;8.018;2023-05-07T08:44:12;19.70;99.90
6988;DHT22;3534;49.960;8.018;2023-05-07T08:46:41;19.70;99.90
6988;DHT22;3534;49.960;8.018;2023-05-07T08:49:10;19.80;99.90
6988;DHT22;3534;49.960;8.018;2023-05-07T08:51:36;19.80;99.90
6988;DHT22;3534;49.960;8.018;2023-05-07T08:54:04;19.90;99.90
6988;DHT22;3534;49.960;8.018;2023-05-07T08:56:32;20.00;99.90
6988;DHT22;3534;49.960;8.018;2023-05-07T08:58:58;20.00;99.90
6988;DHT22;3534;49.960;8.018;2023-05-07T09:01:26;20.10;99.90
6988;DHT22;3534;49.960;8.018;2023-05-07T09:03:53;20.10;99.90
6988;DHT22;3534;49.960;8.018;2023-05-07T09:06:21;20.20;99.90
6988;DHT22;3534;49.960;8.018;2023-05-07T09:08:52;20.30;99.90
6988;DHT22;3534;49.960;8.018;2023-05-07T09:11:22;20.30;99.90
6988;DHT22;3534;49.960;8.018;2023-05-07T09:13:51;20.40;99.90
6988;DHT22;3534;49.960;8.018;2023-05-07T09:16:20;20.50;99.90
6988;DHT22;3534;49.960;8.018;2023-05-07T09:18:51;20.50;99.90
6988;DHT22;3534;49.960;8.018;2023-05-07T09:21:18;20.60;99.90
6988;DHT22;3534;49.960;8.018;2023-05-07T09:23:48;20.70;99.90
6988;DHT22;3534;49.960;8.018;2023-05-07T09:26:14;20.70;99.90
6988;DHT22;3534;49.960;8.018;2023-05-07T09:28:41;20.80;99.90
6988;DHT22;3534;49.960;8.018;2023-05-07T09:31:08;20.90;99.90
6988;DHT22;3534;49.960;8.018;2023-05-07T09:33:36;20.90;99.90
6988;DHT22;3534;49.960;8.018;2023-05-07T09:36:03;21.00;99.90
6988;DHT22;3534;49.960;8.018;2023-05-07T09:38:30;21.10;99.90
6988;DHT22;3534;49.960;8.018;2023-05-07T09:41:03;21.10;99.90
6988;DHT22;3534;49.960;8.018;2023-05-07T09:43:32;21.10;99.90
6988;DHT22;3534;49.960;8.018;2023-05-07T09:46:02;21.20;99.90
6988;DHT22;3534;49.960;8.018;2023-05-07T09:48:30;21.20;99.90
6988;DHT22;3534;49.960;8.018;2023-05-07T09:51:02;21.20;99.90
6988;DHT22;3534;49.960;8.018;2023-05-07T09:53:29;21.30;99.90
6988;DHT22;3534;49.960;8.018;2023-05-07T09:55:57;21.30;99.90
6988;DHT22;3534;49.960;8.018;2023-05-07T09:58:26;21.40;99.90
6988;DHT22;3534;49.960;8.018;2023-05-07T10:00:53;21.50;99.90
6988;DHT22;3534;49.960;8.018;2023-05-07T10:03:22;21.50;99.90
6988;DHT22;3534;49.960;8.018;2023-05-07T10:05:50;21.70;99.90
6988;DHT22;3534;49.960;8.018;2023-05-07T10:08:18;21.70;99.90
6988;DHT22;3534;49.960;8.018;2023-05-07T10:10:45;21.70;99.90
6988;DHT22;3534;49.960;8.018;2023-05-07T10:13:13;21.80;99.90
6988;DHT22;3534;49.960;8.018;2023-05-07T10:15:41;21.90;99.90
6988;DHT22;3534;49.960;8.018;2023-05-07T10:18:08;22.00;99.90
6988;DHT22;3534;49.960;8.018;2023-05-07T10:20:36;22.00;99.90
6988;DHT22;3534;49.960;8.018;2023-05-07T10:23:04;22.10;99.90
6988;DHT22;3534;49.960;8.018;2023-05-07T10:25:32;22.10;99.90
6988;DHT22;3534;49.960;8.018;2023-05-07T10:28:02;22.20;99.90
6988;DHT22;3534;49.960;8.018;2023-05-07T10:30:38;22.20;99.90
6988;DHT22;3534;49.960;8.018;2023-05-07T10:33:10;22.30;99.90
6988;DHT22;3534;49.960;8.018;2023-05-07T10:35:40;22.30;99.90
6988;DHT22;3534;49.960;8.018;2023-05-07T10:38:08;22.30;99.90
6988;DHT22;3534;49.960;8.018;2023-05-07T10:40:35;22.40;99.90
6988;DHT22;3534;49.960;8.018;2023-05-07T10:43:03;22.40;99.90
6988;DHT22;3534;49.960;8.018;2023-05-07T10:45:31;22.50;99.90
6988;DHT22;3534;49.960;8.018;2023-05-07T10:48:13;22.50;99.90
6988;DHT22;3534;49.960;8.018;2023-05-07T10:50:41;22.60;99.90
6988;DHT22;3534;49.960;8.018;2023-05-07T10:53:24;22.60;99.90
6988;DHT22;3534;49.960;8.018;2023-05-07T10:56:24;22.70;99.90
6988;DHT22;3534;49.960;8.018;2023-05-07T10:58:53;22.80;99.90
6988;DHT22;3534;49.960;8.018;2023-05-07T11:01:53;22.80;99.90
6988;DHT22;3534;49.960;8.018;2023-05-07T11:04:21;22.90;99.90
6988;DHT22;3534;49.960;8.018;2023-05-07T11:07:25;22.90;99.90
6988;DHT22;3534;49.960;8.018;2023-05-07T11:10:00;23.00;99.90
6988;DHT22;3534;49.960;8.018;2023-05-07T11:12:49;23.00;99.90
6988;DHT22;3534;49.960;8.018;2023-05-07T11:15:35;23.10;99.90
6988;DHT22;3534;49.960;8.018;2023-05-07T11:18:02;23.10;99.90
6988;DHT22;3534;49.960;8.018;2023-05-07T11:20:51;23.20;99.90
6988;DHT22;3534;49.960;8.018;2023-05-07T11:23:56;23.30;99.90
6988;DHT22;3534;49.960;8.018;2023-05-07T11:26:28;23.40;99.90
6988;DHT22;3534;49.960;8.018;2023-05-07T11:28:55;23.50;99.90
6988;DHT22;3534;49.960;8.018;2023-05-07T11:31:24;23.50;99.90
6988;DHT22;3534;49.960;8.018;2023-05-07T11:33:52;23.60;99.90
6988;DHT22;3534;49.960;8.018;2023-05-07T11:36:22;23.60;99.90
6988;DHT22;3534;49.960;8.018;2023-05-07T11:38:48;23.70;99.90
6988;DHT22;3534;49.960;8.018;2023-05-07T11:41:16;23.70;99.90
6988;DHT22;3534;49.960;8.018;2023-05-07T11:43:56;23.80;99.90
6988;DHT22;3534;49.960;8.018;2023-05-07T11:46:23;23.90;99.90
6988;DHT22;3534;49.960;8.018;2023-05-07T11:48:49;23.90;99.90
6988;DHT22;3534;49.960;8.018;2023-05-07T11:51:20;24.00;99.90
6988;DHT22;3534;49.960;8.018;2023-05-07T11:53:47;24.00;99.90
6988;DHT22;3534;49.960;8.018;2023-05-07T11:56:16;24.10;99.90
6988;DHT22;3534;49.960;8.018;2023-05-07T11:58:44;24.20;99.90
6988;DHT22;3534;49.960;8.018;2023-05-07T12:01:12;24.20;99.90
6988;DHT22;3534;49.960;8.018;2023-05-07T12:03:41;24.30;99.90
6988;DHT22;3534;49.960;8.018;2023-05-07T12:06:09;24.30;99.90
6988;DHT22;3534;49.960;8.018;2023-05-07T12:08:38;24.40;99.90
6988;DHT22;3534;49.960;8.018;2023-05-07T12:11:08;24.50;99.90
6988;DHT22;3534;49.960;8.018;2023-05-07T12:13:36;24.60;99.90
6988;DHT22;3534;49.960;8.018;2023-05-07T12:16:05;24.70;99.90
6988;DHT22;3534;49.960;8.018;2023-05-07T12:18:32;24.80;99.90
6988;DHT22;3534;49.960;8.018;2023-05-07T12:20:59;24.90;99.90
6988;DHT22;3534;49.960;8.018;2023-05-07T12:23:26;25.00;99.90
6988;DHT22;3534;49.960;8.018;2023-05-07T12:25:54;25.10;99.90
6988;DHT22;3534;49.960;8.018;2023-05-07T12:28:21;25.30;99.90
6988;DHT22;3534;49.960;8.018;2023-05-07T12:30:49;25.40;99.90
6988;DHT22;3534;49.960;8.018;2023-05-07T12:33:17;25.60;99.90
6988;DHT22;3534;49.960;8.018;2023-05-07T12:35:47;25.60;99.90
6988;DHT22;3534;49.960;8.018;2023-05-07T12:38:16;25.80;99.90
6988;DHT22;3534;49.960;8.018;2023-05-07T12:40:44;26.00;99.90
6988;DHT22;3534;49.960;8.018;2023-05-07T12:43:16;26.10;99.90
6988;DHT22;3534;49.960;8.018;2023-05-07T12:45:44;26.30;99.90
6988;DHT22;3534;49.960;8.018;2023-05-07T12:48:11;26.40;99.90
6988;DHT22;3534;49.960;8.018;2023-05-07T12:50:38;26.60;99.90
6988;DHT22;3534;49.960;8.018;2023-05-07T12:53:06;26.90;99.90
6988;DHT22;3534;49.960;8.018;2023-05-07T12:55:41;27.20;99.90
6988;DHT22;3534;49.960;8.018;2023-05-07T12:58:15;27.40;99.90
6988;DHT22;3534;49.960;8.018;2023-05-07T13:00:43;27.60;99.90
6988;DHT22;3534;49.960;8.018;2023-05-07T13:03:11;27.80;99.90
6988;DHT22;3534;49.960;8.018;2023-05-07T13:05:38;27.90;99.90
6988;DHT22;3534;49.960;8.018;2023-05-07T13:08:05;28.10;99.90
6988;DHT22;3534;49.960;8.018;2023-05-07T13:10:32;28.20;99.90
6988;DHT22;3534;49.960;8.018;2023-05-07T13:12:59;28.30;99.90
6988;DHT22;3534;49.960;8.018;2023-05-07T13:15:27;28.50;99.90
6988;DHT22;3534;49.960;8.018;2023-05-07T13:17:54;28.70;99.90
6988;DHT22;3534;49.960;8.018;2023-05-07T13:20:21;29.00;99.90
6988;DHT22;3534;49.960;8.018;2023-05-07T13:22:47;29.20;99.90
6988;DHT22;3534;49.960;8.018;2023-05-07T13:25:15;29.50;99.90
6988;DHT22;3534;49.960;8.018;2023-05-07T13:27:42;29.80;99.90
6988;DHT22;3534;49.960;8.018;2023-05-07T13:30:08;30.00;99.90
6988;DHT22;3534;49.960;8.018;2023-05-07T13:32:37;30.40;98.70
6988;DHT22;3534;49.960;8.018;2023-05-07T13:35:04;30.70;99.60
6988;DHT22;3534;49.960;8.018;2023-05-07T13:37:31;31.00;99.10
6988;DHT22;3534;49.960;8.018;2023-05-07T13:39:58;31.30;97.20
6988;DHT22;3534;49.960;8.018;2023-05-07T13:42:25;31.60;96.20
6988;DHT22;3534;49.960;8.018;2023-05-07T13:44:51;31.80;98.70
6988;DHT22;3534;49.960;8.018;2023-05-07T13:47:18;31.90;95.80
6988;DHT22;3534;49.960;8.018;2023-05-07T13:49:46;32.20;94.70
6988;DHT22;3534;49.960;8.018;2023-05-07T13:52:15;32.30;92.90
6988;DHT22;3534;49.960;8.018;2023-05-07T13:54:41;32.30;91.90
6988;DHT22;3534;49.960;8.018;2023-05-07T13:57:08;32.50;96.90
6988;DHT22;3534;49.960;8.018;2023-05-07T13:59:35;32.60;92.40
6988;DHT22;3534;49.960;8.018;2023-05-07T14:02:01;32.60;90.00
6988;DHT22;3534;49.960;8.018;2023-05-07T14:04:28;32.40;88.90
6988;DHT22;3534;49.960;8.018;2023-05-07T14:06:56;32.10;86.10
6988;DHT22;3534;49.960;8.018;2023-05-07T14:09:23;31.80;85.10
6988;DHT22;3534;49.960;8.018;2023-05-07T14:11:50;31.50;90.00
6988;DHT22;3534;49.960;8.018;2023-05-07T14:14:16;31.40;88.90
6988;DHT22;3534;49.960;8.018;2023-05-07T14:16:43;31.40;88.90
6988;DHT22;3534;49.960;8.018;2023-05-07T14:19:10;31.40;83.70
6988;DHT22;3534;49.960;8.018;2023-05-07T14:21:37;31.30;84.40
6988;DHT22;3534;49.960;8.018;2023-05-07T14:24:06;31.20;89.40
6988;DHT22;3534;49.960;8.018;2023-05-07T14:26:33;31.10;91.50
6988;DHT22;3534;49.960;8.018;2023-05-07T14:29:00;31.00;90.00
6988;DHT22;3534;49.960;8.018;2023-05-07T14:31:27;30.90;88.70
6988;DHT22;3534;49.960;8.018;2023-05-07T14:33:53;30.80;88.20
6988;DHT22;3534;49.960;8.018;2023-05-07T14:36:20;30.70;86.00
6988;DHT22;3534;49.960;8.018;2023-05-07T14:38:48;30.50;87.80
6988;DHT22;3534;49.960;8.018;2023-05-07T14:41:16;30.30;86.30
6988;DHT22;3534;49.960;8.018;2023-05-07T14:43:43;30.10;87.50
6988;DHT22;3534;49.960;8.018;2023-05-07T14:46:15;29.90;86.80
6988;DHT22;3534;49.960;8.018;2023-05-07T14:48:43;29.80;87.30
6988;DHT22;3534;49.960;8.018;2023-05-07T14:51:09;29.60;90.10
6988;DHT22;3534;49.960;8.018;2023-05-07T14:53:36;29.50;92.30
6988;DHT22;3534;49.960;8.018;2023-05-07T14:56:03;29.30;92.40
6988;DHT22;3534;49.960;8.018;2023-05-07T14:58:32;29.20;91.00
6988;DHT22;3534;49.960;8.018;2023-05-07T15:00:59;29.10;89.10
6988;DHT22;3534;49.960;8.018;2023-05-07T15:03:25;29.00;87.90
6988;DHT22;3534;49.960;8.018;2023-05-07T15:05:52;29.00;87.20
6988;DHT22;3534;49.960;8.018;2023-05-07T15:08:19;29.00;88.60
6988;DHT22;3534;49.960;8.018;2023-05-07T15:10:46;29.00;88.00
6988;DHT22;3534;49.960;8.018;2023-05-07T15:13:12;29.10;87.60
6988;DHT22;3534;49.960;8.018;2023-05-07T15:15:41;29.20;88.00
6988;DHT22;3534;49.960;8.018;2023-05-07T15:18:08;29.30;88.20
6988;DHT22;3534;49.960;8.018;2023-05-07T15:20:36;29.30;89.40
6988;DHT22;3534;49.960;8.018;2023-05-07T15:23:03;29.40;87.50
6988;DHT22;3534;49.960;8.018;2023-05-07T15:25:30;29.30;85.80
6988;DHT22;3534;49.960;8.018;2023-05-07T15:27:59;29.20;87.00
6988;DHT22;3534;49.960;8.018;2023-05-07T15:30:25;29.10;87.10
6988;DHT22;3534;49.960;8.018;2023-05-07T15:32:54;28.90;87.70
6988;DHT22;3534;49.960;8.018;2023-05-07T15:35:21;28.70;87.60
6988;DHT22;3534;49.960;8.018;2023-05-07T15:37:47;28.60;87.80
6988;DHT22;3534;49.960;8.018;2023-05-07T15:40:15;28.40;90.20
6988;DHT22;3534;49.960;8.018;2023-05-07T15:42:44;28.30;88.90
6988;DHT22;3534;49.960;8.018;2023-05-07T15:45:11;28.20;89.60
6988;DHT22;3534;49.960;8.018;2023-05-07T15:47:38;28.00;89.80
6988;DHT22;3534;49.960;8.018;2023-05-07T15:50:07;27.90;90.10
6988;DHT22;3534;49.960;8.018;2023-05-07T15:52:34;27.80;90.40
6988;DHT22;3534;49.960;8.018;2023-05-07T15:55:00;27.70;90.40
6988;DHT22;3534;49.960;8.018;2023-05-07T15:57:27;27.60;91.40
6988;DHT22;3534;49.960;8.018;2023-05-07T15:59:54;27.50;90.70
6988;DHT22;3534;49.960;8.018;2023-05-07T16:02:21;27.30;91.80
6988;DHT22;3534;49.960;8.018;2023-05-07T16:04:47;27.20;94.10
6988;DHT22;3534;49.960;8.018;2023-05-07T16:07:16;27.10;93.10